Scalby, United Kingdom
Current Conditions -  °F | °C
As of 7:50 AM on Sunday 23 Nov 2014 (Local Time) from EGXV Reporting Station
Moderate Rain Moderate Rain  
Wind Chill: 44°   Ceiling: 4200
Heat Index: 46°   Visibility: 6mi
Dew Point: 46°   Wind: 6mph
Humidity: 100%   Direction: 280°W
Pressure: 30"   Gusts: NA
Location:  53.77°N, 0.72°W
Report Text: EGXV 230750Z AUTO 28005KT 9000 RA OVC042/// 08/08 Q1016
Loading
Personal Weather Stations






























Interactive Weather Map New forecast layout! Learn more

10-Day Weather Forecast

Advertisements
Track Severe Weather on mobile